Airfield :
LOGIN :

Register | Disclaimer

   EN    FR    IT 

 










Legend :    VFR   Marginal VFR   IFR   Intensive IFR   Very Intensive IFR
Visi :
Ceiling :
>= 8 km
>= 3000ft
5 to 8 km
1000 to 3000 ft
1500m to 5 km
500 to 1000 ft
800 to 1500m
200 to 500 ft
< 800m
< 200 ft
Symbols :   Thunderstorms  Fog  Heavy snow  Heavy precipitations  Wind > 20 kt
SIGMETs :     Misc.  Thunderstorms  Icing  Turbulence  Mountain Waves  Volcanic Ashes






- Airport Elevation : 76 ft
- IATA code : AKT


LCRA - Akrotiri AB

CURRENT METAR :
  • 091720Z 32004KT 9999 FEW020CB 15/11 Q1011 NOSIG

EXPIRED METARs :
  • 091650Z 28005KT 9999 FEW020CB 16/11 Q1011 NOSIG
  • 091620Z 27007KT 9999 FEW020CB 16/11 Q1011 NOSIG
  • 091550Z 26009KT 9999 FEW022CB SCT030 17/11 Q1011 NOSIG
  • 091524Z 26009KT 9999 FEW020CB SCT250 17/11 Q1011 NOSIG

TAF TAF LCRA
Valid from the 09 at 18:00 until the 10 at 12:00 UTC


091627Z 0918/1012 27008KT 9999 FEW020
PROB30
TEMPO 0918/0920 4000 TSRA BKN020CB
PROB30
TEMPO 1006/1012 4000 TSRA BKN022CB



MET'MAP, your aeronautical weather chart ! - Copyright ORBIFLY December 2007 - Disclaimer

ORBIFLY MET'MAP TEAM :

Programming & Development : Alexandra Zaïnal
Concept & original design : Baudouin d'Aumeries
Assistance for programming : Marc-Olivier Méhu
Technical & hardware support : Manuel Goepfert

Contact : metmap@orbifly.com




SOURCES & CREDITS :

   NOAA